Time;durP1;ratioP1;P1;durP2;ratioP2;P2;SDS_P1;SDS_P2;PMS_P1;PMS_P2;Temp;Humidity;BMP_temperature;BMP_pressure;BME280_temperature;BME280_humidity;BME280_pressure;Samples;Min_cycle;Max_cycle;Signal;HPM_P1;HPM_P2
2021/08/26 10:37:28;;;;;;;4.03;1.65;;;20.00;99.90;;;;;;5106015;27;20619;-84
2021/08/26 10:39:56;;;;;;;34.97;4.45;;;19.60;99.90;;;;;;5104451;28;20297;-83
2021/08/26 10:42:44;;;;;;;9.95;3.17;;;19.70;99.90;;;;;;5116267;28;20695;-86
2021/08/26 10:45:26;;;;;;;4.38;1.67;;;19.50;99.90;;;;;;5114291;28;20994;-83
2021/08/26 10:48:25;;;;;;;4.45;1.83;;;19.20;99.90;;;;;;5119408;28;20243;-84
2021/08/26 10:51:22;;;;;;;4.28;1.55;;;19.10;99.90;;;;;;5121286;28;20199;-83
2021/08/26 10:53:52;;;;;;;4.50;1.40;;;18.90;99.90;;;;;;5111393;28;20231;-85
2021/08/26 10:59:04;;;;;;;3.83;1.63;;;18.60;99.90;;;;;;5102957;28;20719;-81
2021/08/26 11:01:37;;;;;;;6.80;1.88;;;17.70;99.90;;;;;;5104822;28;20271;-82
2021/08/26 11:04:06;;;;;;;6.20;1.60;;;17.10;99.90;;;;;;5096689;28;20231;-80
2021/08/26 11:06:43;;;;;;;7.72;1.70;;;17.20;99.90;;;;;;5094559;28;20195;-80
2021/08/26 11:09:46;;;;;;;6.35;1.95;;;17.50;99.90;;;;;;5097139;28;20750;-82
2021/08/26 11:12:30;;;;;;;7.63;2.00;;;17.90;99.90;;;;;;5097669;28;20224;-82
2021/08/26 11:15:00;;;;;;;3.80;1.60;;;18.40;99.90;;;;;;5100657;28;20230;-82
2021/08/26 11:17:36;;;;;;;7.00;2.33;;;18.50;99.90;;;;;;5100850;28;20365;-79
2021/08/26 11:20:37;;;;;;;7.57;1.90;;;18.90;99.90;;;;;;5107694;28;20190;-81
2021/08/26 11:23:13;;;;;;;5.38;1.90;;;19.20;99.90;;;;;;5104956;28;21277;-81
2021/08/26 11:25:42;;;;;;;6.55;2.08;;;19.20;99.90;;;;;;5088168;28;20222;-81
2021/08/26 11:28:30;;;;;;;3.80;1.40;;;19.00;99.90;;;;;;5103729;28;20211;-82
2021/08/26 11:31:22;;;;;;;4.65;1.30;;;19.10;99.90;;;;;;5096698;28;20218;-83
2021/08/26 11:33:53;;;;;;;7.55;1.55;;;19.10;99.90;;;;;;5106426;28;20264;-82
2021/08/26 11:36:44;;;;;;;4.18;1.10;;;19.40;99.90;;;;;;5103948;22;20228;-85
2021/08/26 11:39:22;;;;;;;3.20;1.02;;;19.90;99.90;;;;;;5062760;28;20196;-83
2021/08/26 11:41:51;;;;;;;4.00;1.13;;;19.90;99.90;;;;;;5065779;28;20258;-84
2021/08/26 11:44:26;;;;;;;1.77;0.88;;;19.60;99.90;;;;;;5062530;28;20283;-83
2021/08/26 11:46:53;;;;;;;5.68;1.13;;;19.70;99.90;;;;;;5057762;28;20196;-85
2021/08/26 11:49:20;;;;;;;5.15;1.45;;;19.20;99.90;;;;;;5048048;28;20351;-87
2021/08/26 11:51:47;;;;;;;3.22;1.00;;;19.00;99.90;;;;;;5050939;28;20227;-85
2021/08/26 11:54:17;;;;;;;3.08;1.38;;;18.50;99.90;;;;;;5048220;28;20216;-86
2021/08/26 11:56:56;;;;;;;2.85;1.15;;;17.80;99.90;;;;;;5048580;28;20217;-85
2021/08/26 11:59:29;;;;;;;3.35;1.23;;;17.80;99.90;;;;;;5049870;28;20189;-85
2021/08/26 12:02:25;;;;;;;6.57;1.60;;;17.70;99.90;;;;;;5048114;28;20213;-87
2021/08/26 12:04:55;;;;;;;6.70;1.67;;;18.10;99.90;;;;;;5002141;28;20252;-88
2021/08/26 12:07:29;;;;;;;4.63;1.52;;;18.50;99.90;;;;;;5053258;28;20265;-82
2021/08/26 12:10:06;;;;;;;3.35;1.45;;;18.70;99.90;;;;;;5053081;28;20258;-82
2021/08/26 12:12:56;;;;;;;5.88;1.42;;;18.20;99.90;;;;;;5050243;28;20592;-82
2021/08/26 12:15:32;;;;;;;5.07;1.58;;;18.00;99.90;;;;;;5053322;28;20196;-88
2021/08/26 12:18:06;;;;;;;5.75;1.63;;;18.00;99.90;;;;;;5055015;28;20212;-86
2021/08/26 12:20:54;;;;;;;5.72;1.60;;;17.90;99.90;;;;;;5053351;28;20206;-84
2021/08/26 12:23:40;;;;;;;4.10;1.58;;;18.00;99.90;;;;;;5048981;28;20288;-84
2021/08/26 12:26:19;;;;;;;3.63;1.45;;;18.10;99.90;;;;;;5050493;28;20569;-84
2021/08/26 12:28:59;;;;;;;5.28;1.70;;;18.30;99.90;;;;;;5046075;28;20189;-83
2021/08/26 12:31:29;;;;;;;4.20;1.40;;;18.50;99.90;;;;;;5047332;28;20193;-84
2021/08/26 12:34:09;;;;;;;5.65;1.52;;;18.50;99.90;;;;;;5050733;28;20217;-84
2021/08/26 12:36:49;;;;;;;6.97;1.75;;;18.70;99.90;;;;;;5045226;28;20331;-83
2021/08/26 12:39:19;;;;;;;4.85;1.50;;;18.70;99.90;;;;;;5046827;28;20262;-81
2021/08/26 12:42:03;;;;;;;3.40;1.40;;;18.70;99.90;;;;;;5042542;28;20250;-82
2021/08/26 12:44:36;;;;;;;57.20;6.70;;;18.60;99.90;;;;;;5047782;28;20205;-82
2021/08/26 12:47:07;;;;;;;3.65;1.30;;;18.60;99.90;;;;;;5044294;28;20205;-83
2021/08/26 12:49:42;;;;;;;5.97;1.30;;;18.70;99.90;;;;;;5042415;28;20348;-82
2021/08/26 12:52:14;;;;;;;5.53;1.40;;;18.80;99.90;;;;;;5043000;28;20300;-85
2021/08/26 12:54:43;;;;;;;3.88;1.30;;;19.10;99.90;;;;;;5057551;28;20221;-83
2021/08/26 12:57:25;;;;;;;3.85;1.48;;;19.30;99.90;;;;;;5253566;22;20286;-82
2021/08/26 13:00:00;;;;;;;5.68;1.90;;;19.40;99.90;;;;;;5050814;28;20247;-84
2021/08/26 13:02:29;;;;;;;4.03;1.80;;;19.20;99.90;;;;;;5058284;28;20189;-81
2021/08/26 13:07:25;;;;;;;5.00;1.45;;;19.20;99.90;;;;;;5107479;28;20211;-91
2021/08/26 13:10:02;;;;;;;4.10;1.65;;;18.90;99.90;;;;;;5112003;28;20198;-87
2021/08/26 13:12:35;;;;;;;6.53;1.65;;;18.90;99.90;;;;;;5100353;28;20199;-86
2021/08/26 13:15:08;;;;;;;4.40;1.70;;;19.00;99.90;;;;;;5092344;28;20196;-84
2021/08/26 13:17:42;;;;;;;6.18;1.60;;;19.10;99.90;;;;;;5098944;28;20228;-85
2021/08/26 13:20:13;;;;;;;7.38;1.80;;;19.20;99.90;;;;;;5101903;28;20210;-85
2021/08/26 13:22:43;;;;;;;5.07;2.00;;;19.20;99.90;;;;;;5099246;28;20755;-88
2021/08/26 13:25:23;;;;;;;7.78;2.78;;;18.80;99.90;;;;;;5098921;28;20230;-88
2021/08/26 13:27:55;;;;;;;5.68;2.30;;;18.30;99.90;;;;;;5102116;28;20746;-89
2021/08/26 13:30:30;;;;;;;7.10;2.88;;;18.00;99.90;;;;;;5094332;28;20253;-87
2021/08/26 13:32:59;;;;;;;7.97;2.63;;;18.00;99.90;;;;;;5096876;28;20199;-87
2021/08/26 13:35:27;;;;;;;6.63;2.60;;;18.20;99.90;;;;;;5106276;27;20252;-86
2021/08/26 13:37:56;;;;;;;9.35;2.78;;;18.30;99.90;;;;;;5108137;27;20322;-84
2021/08/26 13:40:24;;;;;;;6.45;2.50;;;18.70;99.90;;;;;;5114995;28;20195;-83
2021/08/26 13:42:51;;;;;;;6.47;2.83;;;18.90;99.90;;;;;;5113963;28;20244;-83
2021/08/26 13:45:30;;;;;;;7.28;2.72;;;19.10;99.90;;;;;;5112541;27;20254;-82
2021/08/26 13:48:06;;;;;;;11.50;2.40;;;19.10;99.90;;;;;;5114649;27;20290;-84
2021/08/26 13:50:36;;;;;;;6.90;2.50;;;19.20;99.90;;;;;;5109036;27;20191;-83
2021/08/26 13:53:05;;;;;;;7.10;2.80;;;19.30;99.90;;;;;;5112374;27;20222;-88
2021/08/26 13:55:33;;;;;;;5.18;2.05;;;19.40;99.90;;;;;;5115670;27;20237;-86
2021/08/26 13:58:03;;;;;;;6.75;2.30;;;19.30;99.90;;;;;;5112808;27;20229;-86
2021/08/26 14:00:34;;;;;;;9.10;2.42;;;19.60;99.90;;;;;;5126013;27;20198;-88
2021/08/26 14:03:04;;;;;;;3.38;2.00;;;19.70;99.90;;;;;;5123226;28;20216;-86
2021/08/26 14:05:35;;;;;;;6.75;2.10;;;19.90;99.90;;;;;;5117091;28;20258;-86
2021/08/26 14:08:04;;;;;;;5.88;2.33;;;19.80;99.90;;;;;;5114864;28;20762;-87
2021/08/26 14:10:32;;;;;;;7.15;2.35;;;19.70;99.90;;;;;;5108391;28;20198;-87
2021/08/26 14:13:04;;;;;;;7.55;2.50;;;19.60;99.90;;;;;;5105582;28;20215;-87
2021/08/26 14:15:53;;;;;;;4.63;2.55;;;19.60;99.90;;;;;;5106851;27;20215;-87
2021/08/26 14:18:27;;;;;;;6.65;2.38;;;19.50;99.90;;;;;;5113562;27;20222;-77
2021/08/26 14:21:02;;;;;;;10.35;2.53;;;19.60;99.90;;;;;;5106308;27;20238;-88
2021/08/26 14:23:37;;;;;;;6.93;2.42;;;19.40;99.90;;;;;;5112485;28;20202;-86
2021/08/26 14:26:25;;;;;;;7.50;2.35;;;19.30;99.90;;;;;;5113716;28;20214;-83
2021/08/26 14:29:09;;;;;;;7.55;2.97;;;19.30;99.90;;;;;;5117373;28;20254;-88
2021/08/26 14:31:40;;;;;;;6.45;2.20;;;19.40;99.90;;;;;;5127094;27;20211;-83
2021/08/26 14:34:16;;;;;;;6.38;2.95;;;19.80;99.90;;;;;;5109057;28;20199;-85
2021/08/26 14:36:43;;;;;;;21.95;5.40;;;19.80;99.90;;;;;;5114279;28;20277;-88
2021/08/26 14:39:20;;;;;;;12.02;5.10;;;20.00;99.90;;;;;;5114325;28;20217;-87
2021/08/26 14:41:54;;;;;;;7.72;2.92;;;19.90;99.90;;;;;;5113125;28;20408;-87
2021/08/26 14:44:30;;;;;;;8.73;3.35;;;19.80;99.90;;;;;;5112204;28;20215;-81
2021/08/26 14:47:00;;;;;;;40.05;6.97;;;19.70;99.90;;;;;;5110950;28;20198;-86
2021/08/26 14:53:13;;;;;;;11.40;3.75;;;19.70;99.90;;;;;;5101495;28;20260;-87
2021/08/26 14:55:50;;;;;;;11.63;3.22;;;19.80;99.90;;;;;;5112719;28;20191;-87
2021/08/26 14:58:53;;;;;;;7.95;2.80;;;19.80;99.90;;;;;;5124122;28;20218;-86
2021/08/26 15:01:40;;;;;;;7.50;3.15;;;20.00;99.90;;;;;;5130030;28;20248;-88
2021/08/26 15:04:26;;;;;;;9.70;2.97;;;19.70;99.90;;;;;;5126008;28;20258;-80
2021/08/26 15:07:00;;;;;;;10.20;3.10;;;19.70;99.90;;;;;;5143122;28;20207;-87
2021/08/26 15:09:43;;;;;;;8.90;2.53;;;19.80;99.90;;;;;;5131502;28;20211;-87
2021/08/26 15:12:12;;;;;;;11.25;3.28;;;20.00;99.90;;;;;;5124833;28;20199;-87
2021/08/26 15:14:44;;;;;;;7.55;2.97;;;19.90;99.90;;;;;;5123668;28;20199;-85
2021/08/26 15:17:14;;;;;;;7.68;3.05;;;20.20;99.90;;;;;;5117063;28;20243;-84
2021/08/26 15:19:46;;;;;;;9.82;3.05;;;20.20;99.90;;;;;;5109719;28;20207;-82
2021/08/26 15:22:14;;;;;;;9.05;3.38;;;20.30;99.90;;;;;;5110495;27;20203;-82
2021/08/26 15:24:44;;;;;;;9.32;2.90;;;20.20;99.90;;;;;;5119845;28;20289;-84
2021/08/26 15:27:12;;;;;;;7.93;3.08;;;20.10;99.90;;;;;;5098867;27;20672;-82
2021/08/26 15:29:40;;;;;;;6.63;2.97;;;19.80;99.90;;;;;;5113199;27;20628;-85
2021/08/26 15:32:08;;;;;;;7.97;2.70;;;19.60;99.90;;;;;;5117414;27;20209;-83
2021/08/26 15:34:35;;;;;;;10.25;3.00;;;19.70;99.90;;;;;;5107084;27;20215;-84
2021/08/26 15:37:07;;;;;;;15.75;4.60;;;19.60;99.90;;;;;;5111670;27;20215;-86
2021/08/26 15:39:39;;;;;;;12.25;3.35;;;19.40;99.90;;;;;;5117245;27;20558;-85
2021/08/26 15:42:12;;;;;;;7.68;2.78;;;19.10;99.90;;;;;;5115640;28;20220;-92
2021/08/26 15:44:39;;;;;;;12.68;3.47;;;18.70;99.90;;;;;;5109604;28;20203;-87
2021/08/26 15:47:11;;;;;;;9.85;3.63;;;18.60;99.90;;;;;;5110870;27;20199;-83
2021/08/26 15:49:40;;;;;;;13.30;3.85;;;18.60;99.90;;;;;;5110214;28;20258;-85
2021/08/26 15:52:26;;;;;;;11.52;3.58;;;18.70;99.90;;;;;;5110359;27;20262;-84
2021/08/26 15:55:04;;;;;;;10.55;3.70;;;18.60;99.90;;;;;;5114038;27;20194;-85
2021/08/26 16:00:49;;;;;;;7.22;3.55;;;18.40;99.90;;;;;;5114184;28;20272;-86
2021/08/26 16:03:24;;;;;;;10.82;3.55;;;18.40;99.90;;;;;;5116174;27;20201;-86
2021/08/26 16:05:53;;;;;;;81.70;38.75;;;18.50;99.90;;;;;;5112538;28;20204;-86
2021/08/26 16:08:22;;;;;;;10.48;3.42;;;18.60;99.90;;;;;;5107072;27;20223;-87
2021/08/26 16:10:50;;;;;;;10.52;3.15;;;18.30;99.90;;;;;;5112459;27;20197;-89
2021/08/26 16:13:22;;;;;;;7.10;2.78;;;18.30;99.90;;;;;;5125123;27;20213;-91
2021/08/26 16:15:50;;;;;;;11.63;3.58;;;18.30;99.90;;;;;;5125775;27;20348;-90
2021/08/26 16:18:18;;;;;;;11.00;3.17;;;18.10;99.90;;;;;;5118296;27;20249;-89
2021/08/26 16:20:47;;;;;;;10.10;3.90;;;18.00;99.90;;;;;;5117577;27;20208;-88
2021/08/26 16:26:03;;;;;;;10.98;3.22;;;17.80;99.90;;;;;;5115837;28;20219;-89
2021/08/26 16:28:38;;;;;;;8.65;3.50;;;17.70;99.90;;;;;;5120509;27;20712;-90
2021/08/26 16:31:21;;;;;;;9.98;3.28;;;17.60;99.90;;;;;;5108637;28;20200;-86
2021/08/26 16:33:54;;;;;;;10.90;3.70;;;17.50;99.90;;;;;;5107614;28;20230;-85
2021/08/26 16:36:22;;;;;;;12.70;3.30;;;17.40;99.90;;;;;;5105020;27;20230;-87
2021/08/26 16:38:50;;;;;;;11.77;4.15;;;17.50;99.90;;;;;;5110159;27;20223;-88
2021/08/26 16:41:21;;;;;;;15.23;4.65;;;17.40;99.90;;;;;;5113906;27;20715;-87
2021/08/26 16:44:12;;;;;;;9.75;3.20;;;17.40;99.90;;;;;;5112323;28;20238;-89
2021/08/26 16:46:39;;;;;;;13.68;3.85;;;17.30;99.90;;;;;;5108570;28;20215;-85
2021/08/26 16:49:11;;;;;;;15.23;4.30;;;17.30;99.90;;;;;;5104942;27;20314;-85
2021/08/26 16:51:38;;;;;;;16.13;3.85;;;17.40;99.90;;;;;;5107769;27;20294;-85
2021/08/26 16:54:06;;;;;;;10.93;4.18;;;17.50;99.90;;;;;;5110193;28;20287;-85
2021/08/26 16:56:45;;;;;;;9.93;3.78;;;17.70;99.90;;;;;;5123253;27;20195;-88
2021/08/26 16:59:14;;;;;;;15.50;4.45;;;17.90;99.90;;;;;;5101926;28;20237;-84
2021/08/26 17:01:47;;;;;;;13.45;4.13;;;18.00;99.90;;;;;;5104378;27;20241;-82
2021/08/26 17:04:15;;;;;;;14.00;4.53;;;18.00;99.90;;;;;;5100650;28;20260;-82
2021/08/26 17:06:42;;;;;;;12.90;4.07;;;18.00;99.90;;;;;;5104764;27;20223;-84
2021/08/26 17:09:10;;;;;;;13.80;4.47;;;18.00;99.90;;;;;;5110462;27;20197;-83
2021/08/26 17:11:40;;;;;;;15.20;4.63;;;17.90;99.90;;;;;;5103377;28;20217;-83
2021/08/26 17:14:18;;;;;;;14.48;4.60;;;17.90;99.90;;;;;;5109032;28;20196;-82
2021/08/26 17:16:45;;;;;;;12.98;4.78;;;17.90;99.90;;;;;;5108791;27;20195;-84
2021/08/26 17:19:14;;;;;;;13.38;4.68;;;17.70;99.90;;;;;;5102118;27;20254;-83
2021/08/26 17:21:41;;;;;;;15.15;4.45;;;17.70;99.90;;;;;;5100740;27;20196;-83
2021/08/26 17:24:08;;;;;;;16.00;4.80;;;17.70;99.90;;;;;;5102798;27;20322;-83
2021/08/26 17:26:36;;;;;;;16.83;5.68;;;17.60;99.90;;;;;;5103787;28;20198;-83
2021/08/26 17:29:06;;;;;;;14.43;5.57;;;17.80;99.90;;;;;;5103955;27;20292;-85
2021/08/26 17:31:35;;;;;;;14.68;4.93;;;17.80;99.90;;;;;;5105635;27;20262;-83
2021/08/26 17:34:02;;;;;;;18.55;6.57;;;17.80;99.90;;;;;;5107567;28;20202;-82
2021/08/26 17:36:30;;;;;;;14.48;5.15;;;17.80;99.90;;;;;;5106524;27;20282;-84
2021/08/26 17:39:01;;;;;;;10.85;4.72;;;17.70;99.90;;;;;;5101975;27;20252;-77
2021/08/26 17:41:28;;;;;;;15.77;4.80;;;17.60;99.90;;;;;;5104542;27;20219;-78
2021/08/26 17:43:55;;;;;;;13.02;4.68;;;17.60;99.90;;;;;;5093740;27;20244;-79
2021/08/26 17:46:23;;;;;;;14.95;5.60;;;17.50;99.90;;;;;;5098279;27;20215;-84
2021/08/26 17:48:55;;;;;;;17.23;7.00;;;17.50;99.90;;;;;;5104572;28;20195;-88
2021/08/26 17:51:24;;;;;;;17.73;6.55;;;17.40;99.90;;;;;;5106418;28;20205;-87
2021/08/26 17:53:51;;;;;;;17.65;6.45;;;17.40;99.90;;;;;;5111022;28;20212;-81
2021/08/26 17:56:18;;;;;;;19.40;6.22;;;17.40;99.90;;;;;;5108516;28;20202;-81
2021/08/26 17:58:48;;;;;;;13.32;5.50;;;17.40;99.90;;;;;;5109337;27;20227;-82
2021/08/26 18:01:20;;;;;;;15.75;6.28;;;17.30;99.90;;;;;;5101014;27;20263;-85
2021/08/26 18:03:49;;;;;;;17.38;6.05;;;17.20;99.90;;;;;;5100734;28;20221;-87
2021/08/26 18:06:21;;;;;;;15.35;6.00;;;17.10;99.90;;;;;;5110060;27;20206;-85
2021/08/26 18:08:58;;;;;;;19.75;6.22;;;17.20;99.90;;;;;;5107903;27;20191;-83
2021/08/26 18:11:25;;;;;;;22.50;7.22;;;17.20;99.90;;;;;;5107560;27;20232;-85
2021/08/26 18:13:52;;;;;;;18.73;6.55;;;17.20;99.90;;;;;;5106649;27;20321;-84
2021/08/26 18:16:19;;;;;;;17.33;7.05;;;17.20;99.90;;;;;;5107234;28;20253;-85
2021/08/26 18:18:46;;;;;;;19.67;6.15;;;17.20;99.90;;;;;;5106504;28;20246;-81
2021/08/26 18:21:14;;;;;;;21.48;6.65;;;17.10;99.90;;;;;;5103944;28;20270;-82
2021/08/26 18:23:43;;;;;;;19.48;6.50;;;17.10;99.90;;;;;;5107634;28;20205;-81
2021/08/26 18:26:10;;;;;;;19.80;6.63;;;17.00;99.90;;;;;;5111768;28;20203;-84
2021/08/26 18:28:41;;;;;;;18.95;6.72;;;17.00;99.90;;;;;;5120778;27;20221;-84
2021/08/26 18:31:33;;;;;;;21.55;7.10;;;17.00;99.90;;;;;;5115909;28;20187;-84
2021/08/26 18:34:11;;;;;;;18.38;6.68;;;17.00;99.90;;;;;;5106820;28;20198;-85
2021/08/26 18:36:55;;;;;;;17.15;7.47;;;17.00;99.90;;;;;;5099440;28;20191;-86
2021/08/26 18:39:29;;;;;;;19.98;6.47;;;17.10;99.90;;;;;;5112034;28;20251;-85
2021/08/26 18:41:57;;;;;;;20.27;6.82;;;17.10;99.90;;;;;;5113370;28;20255;-82
2021/08/26 18:44:25;;;;;;;21.25;6.88;;;17.10;99.90;;;;;;5106721;28;20217;-86
2021/08/26 18:46:53;;;;;;;18.95;6.88;;;17.10;99.90;;;;;;5113911;28;20219;-82
2021/08/26 18:49:21;;;;;;;17.92;7.40;;;17.10;99.90;;;;;;5109449;28;20202;-84
2021/08/26 18:51:49;;;;;;;15.02;6.38;;;17.10;99.90;;;;;;5107563;28;20263;-82
2021/08/26 18:54:17;;;;;;;25.13;7.88;;;17.10;99.90;;;;;;5100888;28;20230;-85
2021/08/26 18:56:48;;;;;;;21.60;8.50;;;17.10;99.90;;;;;;5117380;27;20653;-82
2021/08/26 18:59:18;;;;;;;22.70;8.30;;;17.10;99.90;;;;;;5103584;27;20223;-86
2021/08/26 19:01:48;;;;;;;18.65;7.57;;;17.00;99.90;;;;;;5106451;27;20713;-84
2021/08/26 19:04:15;;;;;;;21.27;8.13;;;17.00;99.90;;;;;;5108781;27;20656;-81
2021/08/26 19:06:42;;;;;;;27.05;10.68;;;16.90;99.90;;;;;;5104813;27;20356;-81
2021/08/26 19:09:10;;;;;;;16.10;7.57;;;16.90;99.90;;;;;;5106624;27;20696;-83
2021/08/26 19:11:37;;;;;;;23.85;9.13;;;16.80;99.90;;;;;;5107310;27;20721;-80
2021/08/26 19:14:11;;;;;;;19.88;8.27;;;16.80;99.90;;;;;;5111442;27;20195;-90
2021/08/26 19:16:39;;;;;;;20.10;7.90;;;16.80;99.90;;;;;;5114185;27;20198;-82
2021/08/26 19:19:09;;;;;;;18.27;7.78;;;16.70;99.90;;;;;;5123548;27;20222;-87
2021/08/26 19:21:38;;;;;;;23.90;8.73;;;16.60;99.90;;;;;;5107726;27;20239;-84
2021/08/26 19:24:14;;;;;;;24.67;8.63;;;16.60;99.90;;;;;;5110250;28;20203;-83
2021/08/26 19:26:47;;;;;;;19.15;7.70;;;16.50;99.90;;;;;;5113647;27;20190;-85
2021/08/26 19:29:16;;;;;;;19.10;7.72;;;16.40;99.90;;;;;;5112701;27;20226;-81
2021/08/26 19:32:01;;;;;;;26.02;7.85;;;16.30;99.90;;;;;;5114469;28;20266;-86
2021/08/26 19:34:32;;;;;;;247.52;141.30;;;16.30;99.90;;;;;;5114411;27;20250;-81
2021/08/26 19:37:00;;;;;;;25.05;8.65;;;16.20;99.90;;;;;;5111125;27;20201;-84
2021/08/26 19:39:27;;;;;;;21.88;8.95;;;16.20;99.90;;;;;;5113431;27;20223;-83
2021/08/26 19:41:55;;;;;;;18.75;8.38;;;16.30;99.90;;;;;;5107704;27;20201;-84
2021/08/26 19:44:25;;;;;;;27.13;9.90;;;16.30;99.90;;;;;;5106621;28;20193;-82
2021/08/26 19:46:53;;;;;;;27.02;9.23;;;16.30;99.90;;;;;;5111591;28;20198;-83
2021/08/26 19:49:22;;;;;;;26.70;8.93;;;16.30;99.90;;;;;;5109965;27;20284;-86
2021/08/26 19:51:54;;;;;;;26.65;9.93;;;16.30;99.90;;;;;;5107900;27;20209;-85
2021/08/26 19:57:37;;;;;;;20.88;8.57;;;16.20;99.90;;;;;;5060069;22;20236;-83
2021/08/26 20:00:13;;;;;;;22.60;9.20;;;16.20;99.90;;;;;;5051879;28;20221;-85
2021/08/26 20:02:43;;;;;;;22.33;8.85;;;16.10;99.90;;;;;;5053068;28;20196;-85
2021/08/26 20:05:16;;;;;;;28.23;10.00;;;16.10;99.90;;;;;;5049306;28;20224;-84
2021/08/26 20:07:45;;;;;;;17.88;8.35;;;16.00;99.90;;;;;;5050055;28;20189;-84
2021/08/26 20:10:13;;;;;;;20.05;9.20;;;16.10;99.90;;;;;;5049779;28;20200;-86
2021/08/26 20:12:41;;;;;;;23.55;9.68;;;16.10;99.90;;;;;;5049138;28;20208;-84
2021/08/26 20:15:16;;;;;;;27.08;9.35;;;16.10;99.90;;;;;;5049323;28;20204;-85
2021/08/26 20:17:44;;;;;;;26.27;9.93;;;16.20;99.90;;;;;;5043460;28;20270;-84
2021/08/26 20:20:13;;;;;;;24.20;9.38;;;16.20;99.90;;;;;;5050662;28;20224;-86
2021/08/26 20:22:42;;;;;;;22.50;9.25;;;16.20;99.90;;;;;;5047026;28;20236;-85
2021/08/26 20:25:15;;;;;;;27.52;9.15;;;16.20;99.90;;;;;;5044945;28;20193;-86
2021/08/26 20:27:43;;;;;;;19.23;9.27;;;16.20;99.90;;;;;;5052297;28;20247;-85
2021/08/26 20:30:15;;;;;;;24.63;9.05;;;16.30;99.90;;;;;;5053571;28;20222;-85
2021/08/26 20:32:46;;;;;;;25.17;10.10;;;16.20;99.90;;;;;;5053330;28;20223;-85
2021/08/26 20:35:20;;;;;;;21.65;9.45;;;16.20;99.90;;;;;;5048494;28;20216;-85
2021/08/26 20:40:32;;;;;;;27.85;9.70;;;16.20;99.90;;;;;;5036998;28;20274;-83
2021/08/26 20:43:07;;;;;;;29.15;9.38;;;16.20;99.90;;;;;;5047970;28;20223;-85
2021/08/26 20:56:01;;;;;;;25.20;9.40;;;16.20;99.90;;;;;;5184019;22;20272;-85
2021/08/26 20:59:00;;;;;;;21.50;9.25;;;16.20;99.90;;;;;;5094610;28;20542;-85
2021/08/26 21:01:49;;;;;;;23.23;9.77;;;16.30;99.90;;;;;;5094946;28;20185;-84
2021/08/26 21:04:19;;;;;;;27.45;9.45;;;16.20;99.90;;;;;;5078017;28;20241;-86
2021/08/26 21:06:47;;;;;;;27.38;9.85;;;16.30;99.90;;;;;;5083863;28;20354;-85
2021/08/26 21:09:20;;;;;;;28.45;10.23;;;16.20;99.90;;;;;;5084506;28;20203;-83
2021/08/26 21:11:50;;;;;;;27.33;10.10;;;16.20;99.90;;;;;;5077290;28;20623;-85
2021/08/26 21:14:20;;;;;;;25.70;9.60;;;16.20;99.90;;;;;;5080456;28;20245;-86
2021/08/26 21:16:53;;;;;;;26.60;9.70;;;16.20;99.90;;;;;;5084896;28;20700;-85
2021/08/26 21:19:39;;;;;;;29.05;11.32;;;16.10;99.90;;;;;;5087121;28;22269;-86
2021/08/26 21:22:08;;;;;;;25.45;9.98;;;16.10;99.90;;;;;;5077951;28;20194;-86
2021/08/26 21:24:40;;;;;;;34.85;10.18;;;16.00;99.90;;;;;;5085274;28;20257;-85
2021/08/26 21:27:07;;;;;;;31.55;10.52;;;15.90;99.90;;;;;;5090116;28;20672;-86
2021/08/26 21:29:44;;;;;;;26.13;10.80;;;15.90;99.90;;;;;;5084970;28;20294;-87
2021/08/26 21:32:17;;;;;;;28.88;9.85;;;15.90;99.90;;;;;;5079775;28;20256;-85
2021/08/26 21:34:56;;;;;;;28.95;9.95;;;15.90;99.90;;;;;;5080756;28;20207;-86
2021/08/26 21:40:00;;;;;;;26.50;11.50;;;15.80;99.90;;;;;;5085589;22;20555;-82
2021/08/26 21:42:39;;;;;;;22.10;9.40;;;15.80;99.90;;;;;;5078025;28;20293;-84
2021/08/26 21:45:13;;;;;;;27.17;9.93;;;15.80;99.90;;;;;;5076340;28;20195;-83
2021/08/26 21:47:54;;;;;;;26.77;8.90;;;15.70;99.90;;;;;;5075975;28;20264;-82
2021/08/26 21:50:23;;;;;;;25.73;8.07;;;15.70;99.90;;;;;;5073983;28;20203;-83
2021/08/26 21:52:51;;;;;;;21.02;7.72;;;15.80;99.90;;;;;;5077722;28;20191;-83
2021/08/26 21:55:20;;;;;;;17.30;6.70;;;15.70;99.90;;;;;;5076164;28;20250;-82
2021/08/26 21:57:47;;;;;;;20.58;5.40;;;15.80;99.90;;;;;;5077219;28;20211;-84
2021/08/26 22:00:20;;;;;;;13.25;4.55;;;15.80;99.90;;;;;;5083560;28;20234;-84
2021/08/26 22:02:50;;;;;;;11.90;4.63;;;15.80;99.90;;;;;;5084738;22;20202;-83
2021/08/26 22:05:22;;;;;;;12.80;3.70;;;15.90;99.90;;;;;;5073245;28;20265;-84
2021/08/26 22:07:50;;;;;;;10.48;3.92;;;16.00;99.90;;;;;;5067363;28;20216;-83
2021/08/26 22:10:18;;;;;;;8.93;3.50;;;16.00;99.90;;;;;;5064941;28;20299;-82
2021/08/26 22:12:46;;;;;;;8.80;3.25;;;15.90;99.90;;;;;;5065402;28;20220;-83
2021/08/26 22:15:15;;;;;;;11.82;3.35;;;15.90;99.90;;;;;;5057489;28;20208;-84
2021/08/26 22:17:43;;;;;;;8.70;2.95;;;15.90;99.90;;;;;;5066040;28;20195;-83
2021/08/26 22:20:16;;;;;;;11.05;3.05;;;15.80;99.90;;;;;;5064924;28;20228;-84
2021/08/26 22:22:47;;;;;;;9.18;3.28;;;15.70;99.90;;;;;;5065078;28;20192;-83
2021/08/26 22:25:19;;;;;;;10.95;2.78;;;15.80;99.90;;;;;;5064881;28;20204;-83
2021/08/26 22:27:48;;;;;;;7.25;2.55;;;15.70;99.90;;;;;;5064738;28;20189;-84
2021/08/26 22:30:20;;;;;;;8.63;2.80;;;15.60;99.90;;;;;;5062784;28;20207;-83
2021/08/26 22:32:49;;;;;;;10.45;2.78;;;15.50;99.90;;;;;;5067587;28;20192;-82
2021/08/26 22:35:23;;;;;;;7.95;2.67;;;15.40;99.90;;;;;;5061005;28;20200;-84
2021/08/26 22:37:55;;;;;;;7.70;2.55;;;15.40;99.90;;;;;;5062227;28;20195;-84
2021/08/26 22:40:24;;;;;;;7.35;2.20;;;15.40;99.90;;;;;;5059249;28;20227;-84
2021/08/26 22:42:52;;;;;;;6.50;2.33;;;15.30;99.90;;;;;;5064198;28;20204;-83
2021/08/26 22:45:22;;;;;;;6.13;2.20;;;15.20;99.90;;;;;;5057746;28;20204;-83
2021/08/26 22:47:50;;;;;;;7.47;2.00;;;15.10;99.90;;;;;;5062549;28;20195;-84
2021/08/26 22:50:27;;;;;;;7.70;2.80;;;15.00;99.90;;;;;;5058506;28;20200;-84
2021/08/26 22:53:00;;;;;;;9.33;2.13;;;15.00;99.90;;;;;;5064811;28;20278;-84
2021/08/26 22:55:35;;;;;;;11.50;2.55;;;15.00;99.90;;;;;;5062187;28;20287;-84
2021/08/26 22:58:07;;;;;;;9.70;2.05;;;14.90;99.90;;;;;;5067037;28;20192;-84
2021/08/26 23:00:37;;;;;;;4.85;2.15;;;14.90;99.90;;;;;;5063221;28;20261;-83
2021/08/26 23:03:17;;;;;;;6.72;1.73;;;14.80;99.90;;;;;;5060741;28;20231;-83
2021/08/26 23:05:46;;;;;;;4.77;2.23;;;14.70;99.90;;;;;;5062785;28;20223;-83
2021/08/26 23:08:14;;;;;;;9.30;2.67;;;14.70;99.90;;;;;;5062220;28;20208;-83
2021/08/26 23:10:42;;;;;;;5.57;2.70;;;14.70;99.90;;;;;;5060107;28;20257;-84
2021/08/26 23:13:10;;;;;;;5.07;1.60;;;14.60;99.90;;;;;;5062656;28;20200;-83
2021/08/26 23:15:38;;;;;;;5.57;1.40;;;14.60;99.90;;;;;;5057905;28;20199;-82
2021/08/26 23:18:06;;;;;;;7.17;1.50;;;14.50;99.90;;;;;;5060542;28;20204;-82
2021/08/26 23:20:45;;;;;;;4.00;1.80;;;14.50;99.90;;;;;;5057246;28;20224;-83
2021/08/26 23:23:31;;;;;;;5.97;1.80;;;14.50;99.90;;;;;;5063517;28;20673;-81
2021/08/26 23:26:01;;;;;;;6.87;3.13;;;14.40;99.90;;;;;;5060486;28;20196;-84
2021/08/26 23:28:34;;;;;;;8.20;2.80;;;14.40;99.90;;;;;;5062819;28;20204;-85
2021/08/26 23:31:07;;;;;;;5.33;1.53;;;14.30;99.90;;;;;;5066405;28;20288;-83
2021/08/26 23:33:43;;;;;;;8.27;2.07;;;14.30;99.90;;;;;;5061351;28;20219;-84
2021/08/26 23:36:14;;;;;;;6.63;1.50;;;14.30;99.90;;;;;;5060108;28;20211;-82
2021/08/26 23:38:47;;;;;;;8.30;1.90;;;14.30;99.90;;;;;;5059980;28;20208;-84
2021/08/26 23:41:19;;;;;;;3.20;1.33;;;14.20;99.90;;;;;;5057448;28;20236;-81
2021/08/26 23:43:47;;;;;;;6.27;1.70;;;14.20;99.90;;;;;;5061658;28;20243;-81
2021/08/26 23:46:15;;;;;;;11.15;2.28;;;14.10;99.90;;;;;;5064136;28;20208;-80
2021/08/26 23:48:58;;;;;;;7.17;2.07;;;14.10;99.90;;;;;;5064442;28;20598;-83
2021/08/26 23:51:25;;;;;;;9.90;1.80;;;14.00;99.90;;;;;;5069667;28;20196;-81
2021/08/26 23:53:53;;;;;;;7.77;2.03;;;14.00;99.90;;;;;;5072541;28;20193;-84
2021/08/26 23:56:23;;;;;;;4.37;1.50;;;14.00;99.90;;;;;;5064257;28;20251;-82
